createdAt,value
2023-05-11T00:04:21.907Z,41.12
2023-05-11T00:09:25.454Z,40.66
2023-05-11T00:14:28.296Z,40.17
2023-05-11T00:19:32.082Z,39.79
2023-05-11T00:24:34.940Z,39.45
2023-05-11T00:29:37.873Z,39.02
2023-05-11T00:34:40.766Z,38.92
2023-05-11T00:39:43.553Z,38.70
2023-05-11T00:44:46.492Z,38.32
2023-05-11T00:49:50.712Z,38.21
2023-05-11T00:54:53.601Z,38.06
2023-05-11T00:59:56.603Z,37.82
2023-05-11T01:05:00.492Z,37.44
2023-05-11T01:10:13.362Z,36.90
2023-05-11T01:15:27.032Z,36.64
2023-05-11T01:20:31.159Z,35.47
2023-05-11T01:26:09.874Z,34.41
2023-05-11T01:31:14.337Z,33.78
2023-05-11T01:36:18.791Z,33.21
2023-05-11T01:41:25.185Z,32.88
2023-05-11T01:46:31.598Z,32.56
2023-05-11T01:51:38.199Z,32.13
2023-05-11T01:56:42.298Z,32.40
2023-05-11T02:01:45.432Z,31.69
2023-05-11T02:06:50.180Z,31.66
2023-05-11T02:11:54.307Z,31.04
2023-05-11T02:16:58.156Z,30.70
2023-05-11T02:22:01.828Z,30.65
2023-05-11T02:27:05.299Z,30.47
2023-05-11T02:32:10.605Z,30.50
2023-05-11T02:37:14.438Z,30.67
2023-05-11T02:42:22.844Z,30.45
2023-05-11T02:47:32.831Z,30.84
2023-05-11T02:52:37.044Z,31.34
2023-05-11T02:57:39.983Z,31.26
2023-05-11T03:02:45.103Z,31.83
2023-05-11T03:07:48.412Z,31.79
2023-05-11T03:12:51.426Z,31.71
2023-05-11T03:17:56.516Z,31.44
2023-05-11T03:23:01.161Z,31.39
2023-05-11T03:28:05.239Z,31.13
2023-05-11T03:33:10.300Z,30.12
2023-05-11T03:38:13.662Z,29.48
2023-05-11T03:43:18.740Z,29.12
2023-05-11T03:48:24.051Z,28.29
2023-05-11T03:53:27.741Z,28.21
2023-05-11T03:58:31.479Z,27.44
2023-05-11T04:03:34.699Z,26.71
2023-05-11T04:08:37.685Z,25.70
2023-05-11T04:13:40.676Z,26.08
2023-05-11T04:18:43.544Z,25.70
2023-05-11T04:23:46.500Z,26.08
2023-05-11T04:28:49.804Z,24.99
2023-05-11T04:33:52.920Z,24.90
2023-05-11T04:38:56.161Z,24.41
2023-05-11T04:43:59.950Z,24.08
2023-05-11T04:49:03.306Z,23.51
2023-05-11T04:54:07.214Z,22.83
2023-05-11T04:59:10.874Z,22.49
2023-05-11T05:04:14.367Z,22.05
2023-05-11T05:09:17.632Z,22.06
2023-05-11T05:14:20.668Z,21.71
2023-05-11T05:19:23.603Z,21.79
2023-05-11T05:24:27.386Z,22.12
2023-05-11T05:29:30.777Z,22.52
2023-05-11T05:34:34.201Z,22.56
2023-05-11T05:39:37.447Z,23.19
2023-05-11T05:44:40.421Z,23.32
2023-05-11T05:49:43.386Z,23.34
2023-05-11T05:54:46.391Z,23.71
2023-05-11T05:59:49.630Z,23.84
2023-05-11T06:04:55.107Z,23.99
2023-05-11T06:09:58.082Z,24.17
2023-05-11T06:15:01.343Z,24.06
2023-05-11T06:20:07.932Z,23.19
2023-05-11T06:25:11.969Z,22.78
2023-05-11T06:30:16.514Z,22.94
2023-05-11T06:35:23.223Z,22.64
2023-05-11T06:40:27.257Z,22.86
2023-05-11T06:45:30.391Z,23.42
2023-05-11T06:50:33.576Z,24.43
2023-05-11T06:55:36.636Z,24.87
2023-05-11T07:00:39.880Z,25.27
2023-05-11T07:05:42.921Z,25.61
2023-05-11T07:10:45.813Z,25.93
2023-05-11T07:15:50.149Z,26.16
2023-05-11T07:20:52.964Z,26.82
2023-05-11T07:25:57.917Z,27.11
2023-05-11T07:31:00.859Z,27.77
2023-05-11T07:36:03.974Z,28.77
2023-05-11T07:41:07.880Z,29.51
2023-05-11T07:46:11.757Z,30.54
2023-05-11T07:51:15.062Z,31.52
2023-05-11T07:56:17.919Z,32.97
2023-05-11T08:01:21.166Z,33.35
2023-05-11T08:06:24.359Z,33.83
2023-05-11T08:11:28.094Z,35.99
2023-05-11T08:16:31.045Z,35.95
2023-05-11T08:21:33.829Z,36.79
2023-05-11T08:26:37.040Z,37.77
2023-05-11T08:31:40.746Z,38.72
2023-05-11T08:36:43.706Z,39.78
2023-05-11T08:41:47.214Z,41.05
2023-05-11T08:47:05.803Z,41.55
2023-05-11T08:52:17.009Z,42.26
2023-05-11T08:57:20.160Z,43.63
2023-05-11T09:02:24.636Z,44.24
2023-05-11T09:07:27.753Z,45.45
2023-05-11T09:12:31.451Z,45.99
2023-05-11T09:17:34.351Z,46.47
2023-05-11T09:22:47.515Z,47.64
2023-05-11T09:27:50.401Z,48.92
2023-05-11T09:32:55.831Z,51.97
2023-05-11T09:38:11.529Z,52.08
2023-05-11T09:43:29.770Z,53.65
2023-05-11T09:48:33.081Z,53.41
2023-05-11T09:53:37.486Z,54.05
2023-05-11T09:58:58.239Z,53.83
2023-05-11T10:04:21.237Z,54.37
2023-05-11T10:09:26.741Z,54.83
2023-05-11T10:14:30.273Z,54.78
2023-05-11T10:19:33.901Z,54.82
2023-05-11T10:24:37.482Z,54.77
2023-05-11T10:29:40.851Z,54.58
2023-05-11T10:34:44.806Z,52.71
2023-05-11T10:39:50.120Z,52.14
2023-05-11T10:45:27.217Z,53.30
2023-05-11T10:51:01.675Z,53.20
2023-05-11T10:56:18.726Z,54.37
2023-05-11T11:01:24.602Z,54.69
2023-05-11T11:06:28.956Z,54.46
2023-05-11T11:11:34.221Z,54.74
2023-05-11T11:16:38.065Z,55.61
2023-05-11T11:21:42.851Z,56.18
2023-05-11T11:26:50.880Z,55.84
2023-05-11T11:31:53.851Z,56.18
2023-05-11T11:36:56.585Z,55.52
2023-05-11T11:42:04.186Z,56.27
2023-05-11T11:47:17.118Z,57.27
2023-05-11T11:52:29.311Z,58.51
2023-05-11T11:57:35.079Z,58.89
2023-05-11T12:02:45.916Z,58.32
2023-05-11T12:07:51.004Z,58.49
2023-05-11T12:12:59.868Z,58.22
2023-05-11T12:18:03.732Z,58.31
2023-05-11T12:23:06.594Z,57.88
2023-05-11T12:28:10.361Z,57.85
2023-05-11T12:33:15.558Z,57.58
2023-05-11T12:38:18.910Z,55.79
2023-05-11T12:43:23.049Z,56.57
2023-05-11T12:48:27.475Z,57.22
2023-05-11T12:53:36.768Z,58.73
2023-05-11T12:58:40.913Z,60.14
2023-05-11T13:03:48.432Z,59.60
2023-05-11T13:08:52.135Z,58.90
2023-05-11T13:13:56.569Z,56.78
2023-05-11T13:19:04.534Z,55.19
2023-05-11T13:24:07.787Z,54.75
2023-05-11T13:29:11.545Z,53.99
2023-05-11T13:34:17.277Z,54.37
2023-05-11T13:39:20.136Z,55.47
2023-05-11T13:44:23.079Z,56.02
2023-05-11T13:49:26.120Z,56.86
2023-05-11T13:54:30.186Z,58.29
2023-05-11T13:59:33.019Z,59.65
2023-05-11T14:04:36.016Z,61.01
2023-05-11T14:09:39.124Z,62.16
2023-05-11T14:14:42.106Z,63.38
2023-05-11T14:19:45.740Z,64.14
2023-05-11T14:24:48.706Z,65.37
2023-05-11T14:29:52.481Z,66.00
2023-05-11T14:34:55.320Z,66.32
2023-05-11T14:39:58.305Z,66.73
2023-05-11T14:45:01.201Z,67.30
2023-05-11T14:50:08.766Z,67.96
2023-05-11T14:55:11.815Z,67.58
2023-05-11T15:00:15.233Z,68.49
2023-05-11T15:05:18.513Z,68.14
2023-05-11T15:10:21.819Z,69.01
2023-05-11T15:15:24.883Z,69.37
2023-05-11T15:20:28.085Z,69.91
2023-05-11T15:25:30.853Z,70.13
2023-05-11T15:30:33.766Z,70.33
2023-05-11T15:35:37.274Z,71.22
2023-05-11T15:40:40.179Z,71.40
2023-05-11T15:45:43.254Z,72.35
2023-05-11T15:50:46.277Z,72.68
2023-05-11T15:55:51.631Z,73.02
2023-05-11T16:00:55.367Z,73.09
2023-05-11T16:05:59.699Z,73.97
2023-05-11T16:11:02.640Z,73.87
2023-05-11T16:16:05.813Z,74.91
2023-05-11T16:21:09.144Z,75.08
2023-05-11T16:26:12.057Z,75.53
2023-05-11T16:31:15.927Z,76.29
2023-05-11T16:36:18.917Z,76.65
2023-05-11T16:41:21.822Z,77.07
2023-05-11T16:46:24.865Z,78.15
2023-05-11T16:51:27.807Z,78.43
2023-05-11T16:56:30.727Z,79.04
2023-05-11T17:01:34.526Z,79.69
2023-05-11T17:06:37.289Z,79.93
2023-05-11T17:11:40.316Z,80.31
2023-05-11T17:16:43.450Z,80.77
2023-05-11T17:21:46.394Z,80.99
2023-05-11T17:26:49.363Z,81.27
2023-05-11T17:31:52.748Z,81.82
2023-05-11T17:36:56.234Z,82.40
2023-05-11T17:41:59.138Z,82.46
2023-05-11T17:47:02.665Z,82.70
2023-05-11T17:52:06.268Z,82.83
2023-05-11T17:57:09.244Z,83.27
2023-05-11T18:02:12.774Z,83.81
2023-05-11T18:07:15.644Z,84.86
2023-05-11T18:12:18.522Z,85.91
2023-05-11T18:17:22.319Z,86.08
2023-05-11T18:22:25.628Z,86.50
2023-05-11T18:27:28.932Z,87.00
2023-05-11T18:32:31.957Z,87.72
2023-05-11T18:37:36.317Z,88.01
2023-05-11T18:42:39.916Z,88.57
2023-05-11T18:47:44.872Z,88.30
2023-05-11T18:52:48.007Z,87.72
2023-05-11T18:57:50.925Z,87.56
2023-05-11T19:02:55.218Z,88.36
2023-05-11T19:07:58.167Z,88.74
2023-05-11T19:13:01.035Z,87.85
2023-05-11T19:18:04.037Z,88.79
2023-05-11T19:23:07.215Z,88.80
2023-05-11T19:28:10.536Z,89.03
2023-05-11T19:33:13.868Z,88.95
2023-05-11T19:38:16.827Z,89.32
2023-05-11T19:43:19.698Z,89.21
2023-05-11T19:48:23.012Z,89.47
2023-05-11T19:53:27.552Z,90.17
2023-05-11T19:58:33.549Z,90.40
2023-05-11T20:03:36.596Z,89.74
2023-05-11T20:08:39.591Z,89.98
2023-05-11T20:13:44.416Z,90.09
2023-05-11T20:18:47.564Z,90.06
2023-05-11T20:23:50.933Z,90.30
2023-05-11T20:28:54.271Z,90.65
2023-05-11T20:39:02.968Z,91.23
2023-05-11T20:44:05.821Z,91.43
2023-05-11T20:49:09.698Z,91.55
2023-05-11T20:54:12.927Z,92.24
2023-05-11T21:04:21.871Z,93.25
2023-05-11T21:09:25.746Z,93.54
2023-05-11T21:14:28.590Z,94.39
2023-05-11T21:19:31.461Z,93.92
2023-05-11T21:24:37.985Z,94.46
2023-05-11T21:29:41.705Z,93.57
2023-05-11T21:34:44.652Z,93.99
2023-05-11T21:39:50.847Z,93.54
2023-05-11T21:44:53.714Z,93.07
2023-05-11T21:49:58.418Z,93.15
2023-05-11T21:55:01.367Z,93.49
2023-05-11T22:00:04.896Z,92.99
2023-05-11T22:05:11.594Z,92.75
2023-05-11T22:10:14.453Z,92.54
2023-05-11T22:15:17.419Z,92.48
2023-05-11T22:20:20.639Z,92.21
2023-05-11T22:25:23.836Z,92.47
2023-05-11T22:30:26.637Z,91.97
2023-05-11T22:35:30.234Z,91.78
2023-05-11T22:40:33.214Z,90.60
2023-05-11T22:45:36.115Z,90.48
2023-05-11T22:50:47.963Z,90.93
2023-05-11T22:55:50.822Z,90.76
2023-05-11T23:00:56.163Z,90.61
2023-05-11T23:05:59.005Z,90.87
2023-05-11T23:11:02.348Z,90.66
2023-05-11T23:16:05.491Z,89.05
2023-05-11T23:21:08.723Z,89.40
2023-05-11T23:26:11.834Z,88.33
2023-05-11T23:31:14.688Z,87.37
2023-05-11T23:36:17.557Z,87.92
2023-05-11T23:41:20.866Z,88.02
2023-05-11T23:46:23.806Z,86.87
2023-05-11T23:51:26.759Z,85.64
2023-05-11T23:56:29.575Z,84.37
